sensor_id;sensor_type;location;lat;lon;timestamp;temperature;humidity
71254;HTU21D;59019;47.638;18.966;2023-05-10T00:01:47;10.48;76.81
71254;HTU21D;59019;47.638;18.966;2023-05-10T00:04:13;10.51;76.79
71254;HTU21D;59019;47.638;18.966;2023-05-10T00:06:39;10.52;76.75
71254;HTU21D;59019;47.638;18.966;2023-05-10T00:09:04;10.49;76.97
71254;HTU21D;59019;47.638;18.966;2023-05-10T00:11:30;10.50;76.95
71254;HTU21D;59019;47.638;18.966;2023-05-10T00:13:55;10.50;76.67
71254;HTU21D;59019;47.638;18.966;2023-05-10T00:16:21;10.48;76.75
71254;HTU21D;59019;47.638;18.966;2023-05-10T00:18:47;10.45;77.11
71254;HTU21D;59019;47.638;18.966;2023-05-10T00:21:12;10.40;77.13
71254;HTU21D;59019;47.638;18.966;2023-05-10T00:23:38;10.29;77.44
71254;HTU21D;59019;47.638;18.966;2023-05-10T00:26:03;10.25;77.74
71254;HTU21D;59019;47.638;18.966;2023-05-10T00:28:29;10.20;77.82
71254;HTU21D;59019;47.638;18.966;2023-05-10T00:30:55;10.08;78.73
71254;HTU21D;59019;47.638;18.966;2023-05-10T00:33:20;9.86;79.69
71254;HTU21D;59019;47.638;18.966;2023-05-10T00:35:46;9.77;79.75
71254;HTU21D;59019;47.638;18.966;2023-05-10T00:38:12;9.63;80.61
71254;HTU21D;59019;47.638;18.966;2023-05-10T00:40:38;9.53;81.11
71254;HTU21D;59019;47.638;18.966;2023-05-10T00:43:04;9.35;81.84
71254;HTU21D;59019;47.638;18.966;2023-05-10T00:45:34;9.19;82.45
71254;HTU21D;59019;47.638;18.966;2023-05-10T00:48:05;9.09;82.45
71254;HTU21D;59019;47.638;18.966;2023-05-10T00:50:31;9.00;83.01
71254;HTU21D;59019;47.638;18.966;2023-05-10T00:52:59;8.82;83.90
71254;HTU21D;59019;47.638;18.966;2023-05-10T00:55:24;8.67;84.43
71254;HTU21D;59019;47.638;18.966;2023-05-10T00:57:50;8.43;85.68
71254;HTU21D;59019;47.638;18.966;2023-05-10T01:00:17;8.44;85.15
71254;HTU21D;59019;47.638;18.966;2023-05-10T01:02:46;8.32;86.17
71254;HTU21D;59019;47.638;18.966;2023-05-10T01:05:12;8.22;86.71
71254;HTU21D;59019;47.638;18.966;2023-05-10T01:07:38;8.16;86.48
71254;HTU21D;59019;47.638;18.966;2023-05-10T01:10:05;8.06;87.23
71254;HTU21D;59019;47.638;18.966;2023-05-10T01:12:32;8.03;86.69
71254;HTU21D;59019;47.638;18.966;2023-05-10T01:14:57;8.07;87.12
71254;HTU21D;59019;47.638;18.966;2023-05-10T01:17:23;8.02;87.16
71254;HTU21D;59019;47.638;18.966;2023-05-10T01:19:49;7.96;87.54
71254;HTU21D;59019;47.638;18.966;2023-05-10T01:31:14;7.65;88.50
71254;HTU21D;59019;47.638;18.966;2023-05-10T01:33:59;7.57;88.78
71254;HTU21D;59019;47.638;18.966;2023-05-10T01:36:31;7.53;89.18
71254;HTU21D;59019;47.638;18.966;2023-05-10T01:41:39;7.42;89.41
71254;HTU21D;59019;47.638;18.966;2023-05-10T01:44:30;7.38;89.47
71254;HTU21D;59019;47.638;18.966;2023-05-10T01:47:03;7.38;89.68
71254;HTU21D;59019;47.638;18.966;2023-05-10T01:49:34;7.33;90.28
71254;HTU21D;59019;47.638;18.966;2023-05-10T01:52:10;7.28;90.54
71254;HTU21D;59019;47.638;18.966;2023-05-10T01:54:43;7.26;90.94
71254;HTU21D;59019;47.638;18.966;2023-05-10T01:57:11;7.27;91.24
71254;HTU21D;59019;47.638;18.966;2023-05-10T01:59:40;7.09;92.71
71254;HTU21D;59019;47.638;18.966;2023-05-10T02:02:10;7.17;92.57
71254;HTU21D;59019;47.638;18.966;2023-05-10T02:04:39;7.24;93.00
71254;HTU21D;59019;47.638;18.966;2023-05-10T02:07:06;7.20;93.04
71254;HTU21D;59019;47.638;18.966;2023-05-10T02:09:33;7.32;92.75
71254;HTU21D;59019;47.638;18.966;2023-05-10T02:12:01;7.42;92.36
71254;HTU21D;59019;47.638;18.966;2023-05-10T02:14:30;7.41;92.22
71254;HTU21D;59019;47.638;18.966;2023-05-10T02:16:56;7.48;92.40
71254;HTU21D;59019;47.638;18.966;2023-05-10T02:19:23;7.50;92.52
71254;HTU21D;59019;47.638;18.966;2023-05-10T02:21:51;7.56;92.65
71254;HTU21D;59019;47.638;18.966;2023-05-10T02:24:17;7.60;92.80
71254;HTU21D;59019;47.638;18.966;2023-05-10T02:26:45;7.65;92.71
71254;HTU21D;59019;47.638;18.966;2023-05-10T02:29:12;7.71;92.37
71254;HTU21D;59019;47.638;18.966;2023-05-10T02:31:39;7.73;92.52
71254;HTU21D;59019;47.638;18.966;2023-05-10T02:34:07;7.84;92.44
71254;HTU21D;59019;47.638;18.966;2023-05-10T02:36:34;7.88;92.30
71254;HTU21D;59019;47.638;18.966;2023-05-10T02:39:01;7.91;92.20
71254;HTU21D;59019;47.638;18.966;2023-05-10T02:41:27;7.98;91.87
71254;HTU21D;59019;47.638;18.966;2023-05-10T02:43:57;8.01;91.86
71254;HTU21D;59019;47.638;18.966;2023-05-10T02:46:25;8.06;91.79
71254;HTU21D;59019;47.638;18.966;2023-05-10T02:48:50;8.13;91.53
71254;HTU21D;59019;47.638;18.966;2023-05-10T02:51:18;8.19;91.13
71254;HTU21D;59019;47.638;18.966;2023-05-10T02:53:46;8.20;90.96
71254;HTU21D;59019;47.638;18.966;2023-05-10T02:56:15;8.24;91.46
71254;HTU21D;59019;47.638;18.966;2023-05-10T02:58:45;8.31;91.29
71254;HTU21D;59019;47.638;18.966;2023-05-10T03:01:11;8.36;90.92
71254;HTU21D;59019;47.638;18.966;2023-05-10T03:03:37;8.42;90.49
71254;HTU21D;59019;47.638;18.966;2023-05-10T03:06:02;8.42;90.57
71254;HTU21D;59019;47.638;18.966;2023-05-10T03:08:28;8.45;90.60
71254;HTU21D;59019;47.638;18.966;2023-05-10T03:11:21;8.43;90.82
71254;HTU21D;59019;47.638;18.966;2023-05-10T03:16:28;8.45;90.94
71254;HTU21D;59019;47.638;18.966;2023-05-10T03:19:24;8.48;90.89
71254;HTU21D;59019;47.638;18.966;2023-05-10T03:21:53;8.51;90.81
71254;HTU21D;59019;47.638;18.966;2023-05-10T03:24:22;8.50;90.73
71254;HTU21D;59019;47.638;18.966;2023-05-10T03:26:49;8.51;91.27
71254;HTU21D;59019;47.638;18.966;2023-05-10T03:29:17;8.51;91.05
71254;HTU21D;59019;47.638;18.966;2023-05-10T03:31:42;8.52;91.35
71254;HTU21D;59019;47.638;18.966;2023-05-10T03:34:08;8.46;91.42
71254;HTU21D;59019;47.638;18.966;2023-05-10T03:36:34;8.46;91.82
71254;HTU21D;59019;47.638;18.966;2023-05-10T03:38:59;8.45;91.79
71254;HTU21D;59019;47.638;18.966;2023-05-10T03:41:25;8.44;92.18
71254;HTU21D;59019;47.638;18.966;2023-05-10T03:43:51;8.45;92.27
71254;HTU21D;59019;47.638;18.966;2023-05-10T03:46:16;8.45;92.59
71254;HTU21D;59019;47.638;18.966;2023-05-10T03:48:42;8.45;93.18
71254;HTU21D;59019;47.638;18.966;2023-05-10T03:51:08;8.45;93.73
71254;HTU21D;59019;47.638;18.966;2023-05-10T03:53:33;8.47;94.01
71254;HTU21D;59019;47.638;18.966;2023-05-10T03:55:59;8.51;93.27
71254;HTU21D;59019;47.638;18.966;2023-05-10T03:58:25;8.48;93.42
71254;HTU21D;59019;47.638;18.966;2023-05-10T04:00:51;8.34;94.86
71254;HTU21D;59019;47.638;18.966;2023-05-10T04:03:16;8.43;94.39
71254;HTU21D;59019;47.638;18.966;2023-05-10T04:05:43;8.44;93.97
71254;HTU21D;59019;47.638;18.966;2023-05-10T04:08:08;8.42;93.31
71254;HTU21D;59019;47.638;18.966;2023-05-10T04:10:34;8.41;93.68
71254;HTU21D;59019;47.638;18.966;2023-05-10T04:13:00;8.41;93.74
71254;HTU21D;59019;47.638;18.966;2023-05-10T04:15:25;8.42;93.73
71254;HTU21D;59019;47.638;18.966;2023-05-10T04:17:51;8.47;94.01
71254;HTU21D;59019;47.638;18.966;2023-05-10T04:20:17;8.57;94.06
71254;HTU21D;59019;47.638;18.966;2023-05-10T04:22:43;8.65;93.75
71254;HTU21D;59019;47.638;18.966;2023-05-10T04:25:08;8.73;93.64
71254;HTU21D;59019;47.638;18.966;2023-05-10T04:27:34;8.87;93.69
71254;HTU21D;59019;47.638;18.966;2023-05-10T04:30:00;8.93;93.26
71254;HTU21D;59019;47.638;18.966;2023-05-10T04:32:25;9.05;93.09
71254;HTU21D;59019;47.638;18.966;2023-05-10T04:34:51;9.26;93.42
71254;HTU21D;59019;47.638;18.966;2023-05-10T04:37:17;9.55;93.26
71254;HTU21D;59019;47.638;18.966;2023-05-10T04:39:42;9.94;92.59
71254;HTU21D;59019;47.638;18.966;2023-05-10T04:42:08;10.34;91.70
71254;HTU21D;59019;47.638;18.966;2023-05-10T04:44:34;10.58;89.79
71254;HTU21D;59019;47.638;18.966;2023-05-10T04:46:59;10.77;88.99
71254;HTU21D;59019;47.638;18.966;2023-05-10T04:49:25;10.98;87.86
71254;HTU21D;59019;47.638;18.966;2023-05-10T04:51:50;11.17;87.09
71254;HTU21D;59019;47.638;18.966;2023-05-10T04:54:16;11.44;86.76
71254;HTU21D;59019;47.638;18.966;2023-05-10T04:56:41;11.76;86.28
71254;HTU21D;59019;47.638;18.966;2023-05-10T04:59:07;12.11;85.22
71254;HTU21D;59019;47.638;18.966;2023-05-10T05:01:33;12.40;84.41
71254;HTU21D;59019;47.638;18.966;2023-05-10T05:03:58;12.74;83.55
71254;HTU21D;59019;47.638;18.966;2023-05-10T05:06:24;12.88;82.09
71254;HTU21D;59019;47.638;18.966;2023-05-10T05:08:51;13.27;81.34
71254;HTU21D;59019;47.638;18.966;2023-05-10T05:11:17;13.48;79.93
71254;HTU21D;59019;47.638;18.966;2023-05-10T05:13:43;13.67;79.90
71254;HTU21D;59019;47.638;18.966;2023-05-10T05:16:08;14.04;79.27
71254;HTU21D;59019;47.638;18.966;2023-05-10T05:18:34;14.33;77.79
71254;HTU21D;59019;47.638;18.966;2023-05-10T05:20:59;14.49;76.52
71254;HTU21D;59019;47.638;18.966;2023-05-10T05:23:25;14.56;76.83
71254;HTU21D;59019;47.638;18.966;2023-05-10T05:25:52;14.91;76.37
71254;HTU21D;59019;47.638;18.966;2023-05-10T05:28:18;15.15;74.89
71254;HTU21D;59019;47.638;18.966;2023-05-10T05:30:43;15.11;74.39
71254;HTU21D;59019;47.638;18.966;2023-05-10T05:33:09;15.42;73.80
71254;HTU21D;59019;47.638;18.966;2023-05-10T05:35:35;15.78;73.41
71254;HTU21D;59019;47.638;18.966;2023-05-10T05:38:00;16.10;72.16
71254;HTU21D;59019;47.638;18.966;2023-05-10T05:40:26;16.18;71.25
71254;HTU21D;59019;47.638;18.966;2023-05-10T05:42:51;16.42;70.19
71254;HTU21D;59019;47.638;18.966;2023-05-10T05:45:17;16.56;69.36
71254;HTU21D;59019;47.638;18.966;2023-05-10T05:47:43;16.57;69.36
71254;HTU21D;59019;47.638;18.966;2023-05-10T05:50:09;16.69;69.20
71254;HTU21D;59019;47.638;18.966;2023-05-10T05:52:35;16.78;68.83
71254;HTU21D;59019;47.638;18.966;2023-05-10T05:55:01;17.07;69.20
71254;HTU21D;59019;47.638;18.966;2023-05-10T05:57:26;17.55;67.87
71254;HTU21D;59019;47.638;18.966;2023-05-10T05:59:52;17.52;66.30
71254;HTU21D;59019;47.638;18.966;2023-05-10T06:02:18;17.59;66.17
71254;HTU21D;59019;47.638;18.966;2023-05-10T06:04:43;17.68;66.51
71254;HTU21D;59019;47.638;18.966;2023-05-10T06:07:09;17.80;66.30
71254;HTU21D;59019;47.638;18.966;2023-05-10T06:09:34;17.82;66.35
71254;HTU21D;59019;47.638;18.966;2023-05-10T06:12:00;17.44;65.76
71254;HTU21D;59019;47.638;18.966;2023-05-10T06:14:26;16.90;68.45
71254;HTU21D;59019;47.638;18.966;2023-05-10T06:16:52;17.38;67.36
71254;HTU21D;59019;47.638;18.966;2023-05-10T06:19:18;17.77;66.56
71254;HTU21D;59019;47.638;18.966;2023-05-10T06:21:43;18.05;65.52
71254;HTU21D;59019;47.638;18.966;2023-05-10T06:24:09;18.23;64.21
71254;HTU21D;59019;47.638;18.966;2023-05-10T06:26:34;18.00;64.11
71254;HTU21D;59019;47.638;18.966;2023-05-10T06:29:00;18.39;64.24
71254;HTU21D;59019;47.638;18.966;2023-05-10T06:31:26;18.43;63.68
71254;HTU21D;59019;47.638;18.966;2023-05-10T06:33:51;18.50;62.90
71254;HTU21D;59019;47.638;18.966;2023-05-10T06:36:17;18.47;62.98
71254;HTU21D;59019;47.638;18.966;2023-05-10T06:38:42;18.44;63.05
71254;HTU21D;59019;47.638;18.966;2023-05-10T06:41:08;16.72;64.82
71254;HTU21D;59019;47.638;18.966;2023-05-10T06:43:33;16.98;66.21
71254;HTU21D;59019;47.638;18.966;2023-05-10T06:46:00;16.65;67.36
71254;HTU21D;59019;47.638;18.966;2023-05-10T06:48:25;16.44;67.55
71254;HTU21D;59019;47.638;18.966;2023-05-10T06:50:51;17.04;65.52
71254;HTU21D;59019;47.638;18.966;2023-05-10T06:53:16;17.83;64.71
71254;HTU21D;59019;47.638;18.966;2023-05-10T06:55:42;18.10;62.79
71254;HTU21D;59019;47.638;18.966;2023-05-10T06:58:08;18.13;62.32
71254;HTU21D;59019;47.638;18.966;2023-05-10T07:00:34;18.29;62.72
71254;HTU21D;59019;47.638;18.966;2023-05-10T07:02:59;18.38;61.76
71254;HTU21D;59019;47.638;18.966;2023-05-10T07:05:25;18.23;61.71
71254;HTU21D;59019;47.638;18.966;2023-05-10T07:07:53;18.25;62.06
71254;HTU21D;59019;47.638;18.966;2023-05-10T07:10:18;18.41;62.62
71254;HTU21D;59019;47.638;18.966;2023-05-10T07:12:44;18.66;61.97
71254;HTU21D;59019;47.638;18.966;2023-05-10T07:15:10;18.66;61.06
71254;HTU21D;59019;47.638;18.966;2023-05-10T07:17:35;18.36;62.59
71254;HTU21D;59019;47.638;18.966;2023-05-10T07:20:01;17.79;63.63
71254;HTU21D;59019;47.638;18.966;2023-05-10T07:22:26;17.84;62.13
71254;HTU21D;59019;47.638;18.966;2023-05-10T07:24:52;17.72;63.22
71254;HTU21D;59019;47.638;18.966;2023-05-10T07:27:17;17.60;64.02
71254;HTU21D;59019;47.638;18.966;2023-05-10T07:29:43;17.79;65.01
71254;HTU21D;59019;47.638;18.966;2023-05-10T07:32:08;18.41;63.18
71254;HTU21D;59019;47.638;18.966;2023-05-10T07:34:34;18.40;62.13
71254;HTU21D;59019;47.638;18.966;2023-05-10T07:37:00;18.55;61.32
71254;HTU21D;59019;47.638;18.966;2023-05-10T07:39:26;19.27;62.15
71254;HTU21D;59019;47.638;18.966;2023-05-10T07:41:52;19.47;59.78
71254;HTU21D;59019;47.638;18.966;2023-05-10T07:44:18;19.29;60.25
71254;HTU21D;59019;47.638;18.966;2023-05-10T07:46:46;18.55;60.64
71254;HTU21D;59019;47.638;18.966;2023-05-10T07:49:11;19.14;60.51
71254;HTU21D;59019;47.638;18.966;2023-05-10T07:51:37;19.35;59.83
71254;HTU21D;59019;47.638;18.966;2023-05-10T07:54:02;19.20;60.41
71254;HTU21D;59019;47.638;18.966;2023-05-10T07:56:29;19.24;60.77
71254;HTU21D;59019;47.638;18.966;2023-05-10T07:58:57;18.77;61.92
71254;HTU21D;59019;47.638;18.966;2023-05-10T08:01:23;18.70;61.10
71254;HTU21D;59019;47.638;18.966;2023-05-10T08:03:49;18.95;62.10
71254;HTU21D;59019;47.638;18.966;2023-05-10T08:06:17;18.65;61.32
71254;HTU21D;59019;47.638;18.966;2023-05-10T08:08:42;18.36;62.11
71254;HTU21D;59019;47.638;18.966;2023-05-10T08:11:08;18.88;62.09
71254;HTU21D;59019;47.638;18.966;2023-05-10T08:13:34;19.44;60.80
71254;HTU21D;59019;47.638;18.966;2023-05-10T08:15:59;19.50;60.33
71254;HTU21D;59019;47.638;18.966;2023-05-10T08:18:25;19.18;60.49
71254;HTU21D;59019;47.638;18.966;2023-05-10T08:20:51;19.15;60.80
71254;HTU21D;59019;47.638;18.966;2023-05-10T08:23:16;19.41;60.74
71254;HTU21D;59019;47.638;18.966;2023-05-10T08:25:42;19.58;60.66
71254;HTU21D;59019;47.638;18.966;2023-05-10T08:28:07;19.20;59.61
71254;HTU21D;59019;47.638;18.966;2023-05-10T08:30:33;18.25;61.79
71254;HTU21D;59019;47.638;18.966;2023-05-10T08:32:58;18.32;62.44
71254;HTU21D;59019;47.638;18.966;2023-05-10T08:35:24;18.15;63.73
71254;HTU21D;59019;47.638;18.966;2023-05-10T08:37:51;18.68;62.86
71254;HTU21D;59019;47.638;18.966;2023-05-10T08:40:19;17.92;63.47
71254;HTU21D;59019;47.638;18.966;2023-05-10T08:43:00;17.99;64.24
71254;HTU21D;59019;47.638;18.966;2023-05-10T08:45:27;18.00;63.54
71254;HTU21D;59019;47.638;18.966;2023-05-10T08:47:56;18.13;63.72
71254;HTU21D;59019;47.638;18.966;2023-05-10T08:50:22;17.73;64.17
71254;HTU21D;59019;47.638;18.966;2023-05-10T08:52:48;17.52;66.27
71254;HTU21D;59019;47.638;18.966;2023-05-10T08:55:17;17.72;65.62
71254;HTU21D;59019;47.638;18.966;2023-05-10T08:57:43;18.05;65.34
71254;HTU21D;59019;47.638;18.966;2023-05-10T09:00:09;17.37;66.24
71254;HTU21D;59019;47.638;18.966;2023-05-10T09:02:36;17.62;65.78
71254;HTU21D;59019;47.638;18.966;2023-05-10T09:05:02;17.70;65.00
71254;HTU21D;59019;47.638;18.966;2023-05-10T09:07:30;18.22;64.15
71254;HTU21D;59019;47.638;18.966;2023-05-10T09:09:56;18.52;64.14
71254;HTU21D;59019;47.638;18.966;2023-05-10T09:12:22;18.77;63.10
71254;HTU21D;59019;47.638;18.966;2023-05-10T09:14:49;18.26;62.24
71254;HTU21D;59019;47.638;18.966;2023-05-10T09:17:15;18.56;62.19
71254;HTU21D;59019;47.638;18.966;2023-05-10T09:19:41;18.56;62.30
71254;HTU21D;59019;47.638;18.966;2023-05-10T09:22:08;18.32;62.92
71254;HTU21D;59019;47.638;18.966;2023-05-10T09:24:34;18.63;62.05
71254;HTU21D;59019;47.638;18.966;2023-05-10T09:27:01;19.54;60.09
71254;HTU21D;59019;47.638;18.966;2023-05-10T09:29:39;20.09;60.64
71254;HTU21D;59019;47.638;18.966;2023-05-10T09:32:05;21.20;55.91
71254;HTU21D;59019;47.638;18.966;2023-05-10T09:34:32;21.44;54.74
71254;HTU21D;59019;47.638;18.966;2023-05-10T09:36:59;21.94;53.27
71254;HTU21D;59019;47.638;18.966;2023-05-10T09:39:36;21.53;52.21
71254;HTU21D;59019;47.638;18.966;2023-05-10T09:42:04;21.19;54.01
71254;HTU21D;59019;47.638;18.966;2023-05-10T09:44:31;21.98;53.71
71254;HTU21D;59019;47.638;18.966;2023-05-10T09:46:57;22.71;52.07
71254;HTU21D;59019;47.638;18.966;2023-05-10T09:49:23;23.23;50.14
71254;HTU21D;59019;47.638;18.966;2023-05-10T09:52:06;22.52;50.87
71254;HTU21D;59019;47.638;18.966;2023-05-10T09:54:33;22.67;51.01
71254;HTU21D;59019;47.638;18.966;2023-05-10T09:56:59;21.98;50.95
71254;HTU21D;59019;47.638;18.966;2023-05-10T09:59:26;22.03;50.81
71254;HTU21D;59019;47.638;18.966;2023-05-10T10:02:01;22.66;51.35
71254;HTU21D;59019;47.638;18.966;2023-05-10T10:04:28;23.52;49.82
71254;HTU21D;59019;47.638;18.966;2023-05-10T10:07:03;23.27;49.73
71254;HTU21D;59019;47.638;18.966;2023-05-10T10:09:30;23.13;50.51
71254;HTU21D;59019;47.638;18.966;2023-05-10T10:11:55;23.67;49.77
71254;HTU21D;59019;47.638;18.966;2023-05-10T10:14:23;23.26;48.76
71254;HTU21D;59019;47.638;18.966;2023-05-10T10:16:52;23.72;47.47
71254;HTU21D;59019;47.638;18.966;2023-05-10T10:19:21;24.23;46.23
71254;HTU21D;59019;47.638;18.966;2023-05-10T10:21:48;23.21;47.32
71254;HTU21D;59019;47.638;18.966;2023-05-10T10:24:14;22.17;49.63
71254;HTU21D;59019;47.638;18.966;2023-05-10T10:26:42;22.25;50.24
71254;HTU21D;59019;47.638;18.966;2023-05-10T10:29:29;22.38;50.05
71254;HTU21D;59019;47.638;18.966;2023-05-10T10:34:46;21.78;51.17
71254;HTU21D;59019;47.638;18.966;2023-05-10T10:37:13;21.30;51.59
71254;HTU21D;59019;47.638;18.966;2023-05-10T10:39:39;21.69;52.64
71254;HTU21D;59019;47.638;18.966;2023-05-10T10:42:04;21.48;51.94
71254;HTU21D;59019;47.638;18.966;2023-05-10T10:49:42;21.06;52.66
71254;HTU21D;59019;47.638;18.966;2023-05-10T10:54:40;21.51;52.24
71254;HTU21D;59019;47.638;18.966;2023-05-10T10:57:14;21.46;52.70
71254;HTU21D;59019;47.638;18.966;2023-05-10T10:59:43;21.22;51.83
71254;HTU21D;59019;47.638;18.966;2023-05-10T11:02:34;21.25;51.95
71254;HTU21D;59019;47.638;18.966;2023-05-10T11:07:59;21.24;53.14
71254;HTU21D;59019;47.638;18.966;2023-05-10T11:10:26;21.95;51.03
71254;HTU21D;59019;47.638;18.966;2023-05-10T11:15:40;23.18;48.29
71254;HTU21D;59019;47.638;18.966;2023-05-10T11:18:25;23.49;46.89
71254;HTU21D;59019;47.638;18.966;2023-05-10T11:20:58;23.70;47.06
71254;HTU21D;59019;47.638;18.966;2023-05-10T11:23:33;23.23;46.96
71254;HTU21D;59019;47.638;18.966;2023-05-10T11:26:13;23.20;46.93
71254;HTU21D;59019;47.638;18.966;2023-05-10T11:28:47;23.18;47.36
71254;HTU21D;59019;47.638;18.966;2023-05-10T11:31:17;23.69;46.75
71254;HTU21D;59019;47.638;18.966;2023-05-10T11:33:47;23.51;46.41
71254;HTU21D;59019;47.638;18.966;2023-05-10T11:36:21;23.24;47.30
71254;HTU21D;59019;47.638;18.966;2023-05-10T11:38:47;22.76;48.02
71254;HTU21D;59019;47.638;18.966;2023-05-10T11:41:15;22.99;48.08
71254;HTU21D;59019;47.638;18.966;2023-05-10T11:43:41;22.48;48.49
71254;HTU21D;59019;47.638;18.966;2023-05-10T11:46:11;22.20;49.18
71254;HTU21D;59019;47.638;18.966;2023-05-10T11:48:39;21.69;48.99
71254;HTU21D;59019;47.638;18.966;2023-05-10T11:51:07;21.81;49.63
71254;HTU21D;59019;47.638;18.966;2023-05-10T11:53:38;22.54;50.12
71254;HTU21D;59019;47.638;18.966;2023-05-10T11:56:09;23.36;48.00
71254;HTU21D;59019;47.638;18.966;2023-05-10T11:58:36;23.46;47.34
71254;HTU21D;59019;47.638;18.966;2023-05-10T12:01:03;22.12;48.86
71254;HTU21D;59019;47.638;18.966;2023-05-10T12:03:29;21.42;50.01
71254;HTU21D;59019;47.638;18.966;2023-05-10T12:05:56;21.53;51.33
71254;HTU21D;59019;47.638;18.966;2023-05-10T12:08:23;21.68;50.82
71254;HTU21D;59019;47.638;18.966;2023-05-10T12:10:49;21.72;49.90
71254;HTU21D;59019;47.638;18.966;2023-05-10T12:13:15;21.40;50.08
71254;HTU21D;59019;47.638;18.966;2023-05-10T12:15:41;21.02;51.21
71254;HTU21D;59019;47.638;18.966;2023-05-10T12:18:09;20.54;51.08
71254;HTU21D;59019;47.638;18.966;2023-05-10T12:20:36;20.49;52.23
71254;HTU21D;59019;47.638;18.966;2023-05-10T12:23:02;20.12;52.36
71254;HTU21D;59019;47.638;18.966;2023-05-10T12:25:33;19.65;54.12
71254;HTU21D;59019;47.638;18.966;2023-05-10T12:28:02;19.83;54.33
71254;HTU21D;59019;47.638;18.966;2023-05-10T12:30:29;20.12;53.29
71254;HTU21D;59019;47.638;18.966;2023-05-10T12:33:11;20.01;53.80
71254;HTU21D;59019;47.638;18.966;2023-05-10T12:35:54;19.72;53.95
71254;HTU21D;59019;47.638;18.966;2023-05-10T12:38:32;19.86;54.50
71254;HTU21D;59019;47.638;18.966;2023-05-10T12:41:00;19.62;54.77
71254;HTU21D;59019;47.638;18.966;2023-05-10T12:43:26;19.33;56.13
71254;HTU21D;59019;47.638;18.966;2023-05-10T12:45:51;19.05;56.65
71254;HTU21D;59019;47.638;18.966;2023-05-10T12:48:17;18.98;56.53
71254;HTU21D;59019;47.638;18.966;2023-05-10T12:50:43;19.82;56.61
71254;HTU21D;59019;47.638;18.966;2023-05-10T12:53:09;19.75;55.04
71254;HTU21D;59019;47.638;18.966;2023-05-10T12:55:34;20.17;53.68
71254;HTU21D;59019;47.638;18.966;2023-05-10T12:58:00;20.26;53.81
71254;HTU21D;59019;47.638;18.966;2023-05-10T13:00:26;20.65;52.97
71254;HTU21D;59019;47.638;18.966;2023-05-10T13:02:51;20.64;51.84
71254;HTU21D;59019;47.638;18.966;2023-05-10T13:05:17;21.14;52.78
71254;HTU21D;59019;47.638;18.966;2023-05-10T13:07:43;21.45;50.18
71254;HTU21D;59019;47.638;18.966;2023-05-10T13:10:10;21.30;49.90
71254;HTU21D;59019;47.638;18.966;2023-05-10T13:12:36;20.94;50.50
71254;HTU21D;59019;47.638;18.966;2023-05-10T13:15:02;20.79;51.10
71254;HTU21D;59019;47.638;18.966;2023-05-10T13:17:28;20.49;50.98
71254;HTU21D;59019;47.638;18.966;2023-05-10T13:19:54;19.33;52.95
71254;HTU21D;59019;47.638;18.966;2023-05-10T13:22:20;19.75;54.22
71254;HTU21D;59019;47.638;18.966;2023-05-10T13:24:45;20.14;53.30
71254;HTU21D;59019;47.638;18.966;2023-05-10T13:27:11;20.49;51.82
71254;HTU21D;59019;47.638;18.966;2023-05-10T13:29:36;20.18;53.87
71254;HTU21D;59019;47.638;18.966;2023-05-10T13:32:02;20.60;53.79
71254;HTU21D;59019;47.638;18.966;2023-05-10T13:34:27;20.98;53.94
71254;HTU21D;59019;47.638;18.966;2023-05-10T13:36:53;21.59;54.31
71254;HTU21D;59019;47.638;18.966;2023-05-10T13:39:20;21.88;50.23
71254;HTU21D;59019;47.638;18.966;2023-05-10T13:41:46;22.28;50.12
71254;HTU21D;59019;47.638;18.966;2023-05-10T13:44:14;22.93;50.43
71254;HTU21D;59019;47.638;18.966;2023-05-10T13:46:41;23.61;48.40
71254;HTU21D;59019;47.638;18.966;2023-05-10T13:49:08;24.15;47.81
71254;HTU21D;59019;47.638;18.966;2023-05-10T13:51:34;23.99;45.26
71254;HTU21D;59019;47.638;18.966;2023-05-10T13:54:04;22.75;46.41
71254;HTU21D;59019;47.638;18.966;2023-05-10T13:56:30;22.52;46.40
71254;HTU21D;59019;47.638;18.966;2023-05-10T13:58:56;22.65;47.34
71254;HTU21D;59019;47.638;18.966;2023-05-10T14:01:23;22.71;49.22
71254;HTU21D;59019;47.638;18.966;2023-05-10T14:03:49;23.38;49.38
71254;HTU21D;59019;47.638;18.966;2023-05-10T14:06:14;22.51;46.69
71254;HTU21D;59019;47.638;18.966;2023-05-10T14:08:40;22.48;47.60
71254;HTU21D;59019;47.638;18.966;2023-05-10T14:11:05;22.16;48.20
71254;HTU21D;59019;47.638;18.966;2023-05-10T14:13:31;22.03;48.14
71254;HTU21D;59019;47.638;18.966;2023-05-10T14:15:56;21.70;48.06
71254;HTU21D;59019;47.638;18.966;2023-05-10T14:18:22;20.75;48.89
71254;HTU21D;59019;47.638;18.966;2023-05-10T14:20:48;21.06;50.14
71254;HTU21D;59019;47.638;18.966;2023-05-10T14:23:14;21.36;48.88
71254;HTU21D;59019;47.638;18.966;2023-05-10T14:25:40;21.43;49.47
71254;HTU21D;59019;47.638;18.966;2023-05-10T14:28:06;22.17;47.98
71254;HTU21D;59019;47.638;18.966;2023-05-10T14:30:31;22.87;47.83
71254;HTU21D;59019;47.638;18.966;2023-05-10T14:32:59;22.85;46.65
71254;HTU21D;59019;47.638;18.966;2023-05-10T14:35:27;22.46;46.50
71254;HTU21D;59019;47.638;18.966;2023-05-10T14:37:52;21.99;48.17
71254;HTU21D;59019;47.638;18.966;2023-05-10T14:40:18;21.63;49.02
71254;HTU21D;59019;47.638;18.966;2023-05-10T14:42:44;21.29;49.90
71254;HTU21D;59019;47.638;18.966;2023-05-10T14:45:10;20.76;50.20
71254;HTU21D;59019;47.638;18.966;2023-05-10T14:47:36;20.73;51.14
71254;HTU21D;59019;47.638;18.966;2023-05-10T14:50:01;20.46;51.47
71254;HTU21D;59019;47.638;18.966;2023-05-10T14:52:27;19.70;52.40
71254;HTU21D;59019;47.638;18.966;2023-05-10T14:54:52;19.67;53.20
71254;HTU21D;59019;47.638;18.966;2023-05-10T14:57:18;19.87;52.72
71254;HTU21D;59019;47.638;18.966;2023-05-10T14:59:44;19.94;52.68
71254;HTU21D;59019;47.638;18.966;2023-05-10T15:02:10;19.41;53.50
71254;HTU21D;59019;47.638;18.966;2023-05-10T15:04:35;19.40;53.86
71254;HTU21D;59019;47.638;18.966;2023-05-10T15:07:01;18.98;54.23
71254;HTU21D;59019;47.638;18.966;2023-05-10T15:09:27;18.96;55.67
71254;HTU21D;59019;47.638;18.966;2023-05-10T15:11:53;19.45;54.72
71254;HTU21D;59019;47.638;18.966;2023-05-10T15:14:18;19.37;53.92
71254;HTU21D;59019;47.638;18.966;2023-05-10T15:16:44;19.45;54.20
71254;HTU21D;59019;47.638;18.966;2023-05-10T15:19:10;19.62;53.86
71254;HTU21D;59019;47.638;18.966;2023-05-10T15:21:35;19.88;52.47
71254;HTU21D;59019;47.638;18.966;2023-05-10T15:24:07;19.61;51.98
71254;HTU21D;59019;47.638;18.966;2023-05-10T15:26:33;19.82;52.34
71254;HTU21D;59019;47.638;18.966;2023-05-10T15:28:58;20.09;50.94
71254;HTU21D;59019;47.638;18.966;2023-05-10T15:31:24;20.22;50.95
71254;HTU21D;59019;47.638;18.966;2023-05-10T15:33:50;19.58;50.44
71254;HTU21D;59019;47.638;18.966;2023-05-10T15:36:16;19.70;51.00